createdAt,value
2022-12-27T00:00:51.743Z,1.00
2022-12-27T00:03:38.472Z,1.20
2022-12-27T00:06:25.411Z,1.50
2022-12-27T00:09:11.743Z,1.30
2022-12-27T00:11:59.917Z,1.30
2022-12-27T00:14:46.587Z,1.10
2022-12-27T00:17:33.066Z,0.90
2022-12-27T00:20:19.747Z,0.80
2022-12-27T00:23:06.758Z,1.60
2022-12-27T00:26:03.357Z,0.70
2022-12-27T00:28:50.515Z,0.70
2022-12-27T00:31:37.241Z,0.80
2022-12-27T00:34:23.659Z,1.20
2022-12-27T00:37:09.873Z,0.90
2022-12-27T00:39:56.562Z,1.10
2022-12-27T00:42:43.340Z,0.90
2022-12-27T00:45:29.950Z,1.20
2022-12-27T00:48:16.693Z,1.00
2022-12-27T00:51:16.560Z,1.00
2022-12-27T00:54:02.986Z,1.50
2022-12-27T00:56:49.447Z,1.30
2022-12-27T00:59:35.676Z,1.20
2022-12-27T01:02:22.403Z,1.30
2022-12-27T01:05:08.957Z,1.20
2022-12-27T01:07:55.420Z,0.70
2022-12-27T01:10:42.155Z,1.30
2022-12-27T01:13:28.694Z,1.70
2022-12-27T01:16:20.650Z,2.00
2022-12-27T01:19:06.774Z,1.80
2022-12-27T01:21:53.492Z,1.50
2022-12-27T01:24:39.798Z,2.10
2022-12-27T01:27:26.125Z,2.40
2022-12-27T01:30:12.866Z,2.30
2022-12-27T01:32:59.603Z,1.20
2022-12-27T01:35:46.067Z,1.20
2022-12-27T01:38:32.773Z,1.10
2022-12-27T01:41:42.828Z,1.30
2022-12-27T01:44:38.872Z,0.90
2022-12-27T01:47:49.613Z,1.70
2022-12-27T01:50:38.594Z,0.90
2022-12-27T01:53:33.307Z,1.00
2022-12-27T01:56:24.432Z,1.00
2022-12-27T01:59:11.003Z,0.90
2022-12-27T02:01:57.703Z,0.80
2022-12-27T02:04:43.988Z,1.10
2022-12-27T02:07:35.243Z,0.90
2022-12-27T02:10:21.694Z,0.90
2022-12-27T02:13:08.129Z,0.90
2022-12-27T02:15:54.971Z,0.70
2022-12-27T02:18:41.244Z,0.90
2022-12-27T02:22:05.835Z,1.00
2022-12-27T02:24:58.143Z,0.90
2022-12-27T02:27:52.735Z,0.90
2022-12-27T02:30:39.086Z,0.90
2022-12-27T02:33:27.313Z,1.10
2022-12-27T02:36:18.953Z,1.00
2022-12-27T02:39:05.541Z,0.90
2022-12-27T02:42:10.497Z,1.10
2022-12-27T02:45:15.949Z,0.60
2022-12-27T02:48:21.149Z,1.10
2022-12-27T02:51:40.928Z,0.90
2022-12-27T02:54:35.539Z,0.90
2022-12-27T02:57:53.051Z,1.10
2022-12-27T03:01:31.836Z,1.20
2022-12-27T03:04:35.869Z,0.70
2022-12-27T03:07:31.544Z,0.70
2022-12-27T03:11:07.275Z,0.80
2022-12-27T03:14:48.825Z,0.90
2022-12-27T03:17:39.085Z,1.40
2022-12-27T03:20:44.228Z,0.70
2022-12-27T03:23:48.823Z,0.70
2022-12-27T03:26:36.062Z,0.90
2022-12-27T03:29:40.693Z,1.30
2022-12-27T03:32:45.809Z,0.70
2022-12-27T03:35:32.198Z,1.50
2022-12-27T03:38:18.818Z,0.60
2022-12-27T03:41:24.965Z,1.60
2022-12-27T03:44:24.576Z,0.90
2022-12-27T03:47:35.200Z,1.40
2022-12-27T03:50:24.967Z,0.80
2022-12-27T03:53:16.108Z,1.20
2022-12-27T03:56:03.076Z,0.70
2022-12-27T03:58:49.586Z,1.10
2022-12-27T04:01:36.229Z,1.10
2022-12-27T04:04:22.645Z,0.70
2022-12-27T04:07:09.191Z,1.00
2022-12-27T04:10:14.014Z,0.50
2022-12-27T04:13:19.012Z,0.70
2022-12-27T04:16:24.760Z,0.60
2022-12-27T04:19:29.911Z,1.10
2022-12-27T04:22:35.299Z,1.30
2022-12-27T04:25:40.100Z,0.50
2022-12-27T04:28:44.800Z,0.80
2022-12-27T04:31:49.709Z,1.10
2022-12-27T04:34:44.714Z,0.70
2022-12-27T04:37:31.310Z,0.90
2022-12-27T04:40:36.200Z,0.80
2022-12-27T04:43:41.003Z,0.90
2022-12-27T04:46:45.869Z,0.90
2022-12-27T04:49:50.704Z,0.50
2022-12-27T04:52:56.101Z,0.80
2022-12-27T04:55:42.308Z,1.00
2022-12-27T04:58:28.615Z,1.00
2022-12-27T05:01:33.917Z,0.50
2022-12-27T05:04:20.670Z,0.90
2022-12-27T05:07:26.623Z,0.90
2022-12-27T05:10:32.333Z,0.60
2022-12-27T05:13:37.156Z,1.00
2022-12-27T05:16:24.033Z,1.20
2022-12-27T05:19:12.456Z,0.60
2022-12-27T05:22:17.465Z,0.90
2022-12-27T05:25:22.669Z,0.80
2022-12-27T05:28:10.146Z,1.10
2022-12-27T05:31:00.898Z,1.30
2022-12-27T05:33:47.742Z,1.00
2022-12-27T05:36:34.214Z,0.90
2022-12-27T05:39:20.394Z,0.90
2022-12-27T05:42:06.685Z,1.30
2022-12-27T05:44:53.474Z,1.70
2022-12-27T05:47:40.475Z,1.10
2022-12-27T05:50:27.281Z,1.10
2022-12-27T05:53:14.541Z,1.20
2022-12-27T05:56:01.423Z,0.80
2022-12-27T05:58:48.139Z,1.10
2022-12-27T06:01:34.972Z,0.80
2022-12-27T06:04:21.513Z,1.30
2022-12-27T06:07:10.290Z,1.10
2022-12-27T06:09:56.454Z,1.00
2022-12-27T06:12:43.267Z,1.40
2022-12-27T06:15:29.471Z,1.00
2022-12-27T06:18:15.907Z,1.30
2022-12-27T06:21:06.807Z,0.80
2022-12-27T06:23:53.735Z,1.40
2022-12-27T06:26:40.351Z,1.70
2022-12-27T06:29:26.591Z,1.20
2022-12-27T06:32:12.934Z,1.40
2022-12-27T06:34:59.527Z,1.70
2022-12-27T06:37:46.306Z,1.00
2022-12-27T06:40:32.336Z,1.10
2022-12-27T06:43:18.390Z,1.50
2022-12-27T06:46:06.512Z,1.60
2022-12-27T06:48:53.176Z,0.80
2022-12-27T06:51:39.663Z,0.90
2022-12-27T06:54:26.127Z,1.10
2022-12-27T06:57:12.204Z,0.90
2022-12-27T06:59:58.883Z,2.10
2022-12-27T07:02:45.617Z,1.00
2022-12-27T07:05:34.697Z,1.20
2022-12-27T07:08:21.303Z,1.60
2022-12-27T07:11:09.400Z,1.60
2022-12-27T07:13:56.180Z,1.40
2022-12-27T07:16:42.951Z,2.10
2022-12-27T07:19:29.490Z,1.10
2022-12-27T07:22:15.908Z,1.10
2022-12-27T07:25:02.129Z,1.50
2022-12-27T07:27:48.852Z,1.20
2022-12-27T07:30:35.052Z,0.90
2022-12-27T07:33:21.181Z,1.40
2022-12-27T07:36:17.875Z,1.40
2022-12-27T07:39:04.532Z,0.60
2022-12-27T07:41:50.788Z,1.10
2022-12-27T07:44:37.600Z,0.80
2022-12-27T07:47:23.706Z,1.30
2022-12-27T07:50:10.144Z,0.90
2022-12-27T07:52:56.787Z,1.30
2022-12-27T07:55:43.499Z,1.40
2022-12-27T07:58:29.937Z,0.80
2022-12-27T08:01:17.280Z,1.60
2022-12-27T08:04:04.799Z,1.40
2022-12-27T08:06:51.174Z,0.70
2022-12-27T08:09:38.865Z,0.50
2022-12-27T08:12:25.572Z,1.30
2022-12-27T08:15:12.630Z,1.00
2022-12-27T08:17:58.995Z,0.80
2022-12-27T08:20:45.353Z,1.40
2022-12-27T08:23:31.947Z,1.30
2022-12-27T08:26:18.254Z,0.90
2022-12-27T08:29:05.109Z,0.80
2022-12-27T08:31:51.768Z,1.20
2022-12-27T08:34:38.062Z,1.00
2022-12-27T08:37:24.661Z,0.80
2022-12-27T08:40:11.638Z,1.00
2022-12-27T08:42:59.305Z,0.60
2022-12-27T08:45:45.693Z,0.70
2022-12-27T08:48:33.492Z,1.00
2022-12-27T08:51:32.767Z,1.10
2022-12-27T08:54:19.670Z,1.20
2022-12-27T08:57:06.227Z,0.80
2022-12-27T08:59:52.896Z,0.80
2022-12-27T09:02:39.655Z,0.70
2022-12-27T09:05:26.599Z,1.00
2022-12-27T09:08:13.182Z,1.10
2022-12-27T09:11:10.633Z,1.20
2022-12-27T09:13:58.551Z,1.00
2022-12-27T09:16:44.987Z,1.00
2022-12-27T09:19:31.268Z,0.90
2022-12-27T09:22:18.326Z,0.90
2022-12-27T09:25:05.275Z,0.80
2022-12-27T09:27:51.729Z,0.90
2022-12-27T09:30:38.242Z,3.30
2022-12-27T09:33:24.925Z,1.70
2022-12-27T09:36:13.281Z,1.00
2022-12-27T09:38:59.919Z,0.90
2022-12-27T09:45:28.672Z,0.70
2022-12-27T09:48:36.960Z,1.10
2022-12-27T09:51:32.555Z,0.90
2022-12-27T09:54:24.243Z,1.00
2022-12-27T09:57:33.252Z,1.00
2022-12-27T10:00:34.324Z,0.70
2022-12-27T10:03:25.895Z,0.80
2022-12-27T10:06:30.586Z,1.00
2022-12-27T10:09:23.464Z,1.00
2022-12-27T10:12:29.752Z,1.10
2022-12-27T10:15:36.443Z,0.70
2022-12-27T10:18:45.579Z,0.80
2022-12-27T10:21:34.172Z,0.60
2022-12-27T10:24:25.356Z,1.20
2022-12-27T10:27:22.908Z,1.20
2022-12-27T10:30:17.732Z,1.20
2022-12-27T10:33:04.007Z,1.20
2022-12-27T10:35:50.647Z,0.90
2022-12-27T10:38:37.227Z,0.70
2022-12-27T10:41:29.371Z,0.70
2022-12-27T10:44:16.047Z,0.50
2022-12-27T10:47:02.229Z,1.20
2022-12-27T10:50:03.403Z,1.10
2022-12-27T10:52:54.151Z,0.80
2022-12-27T10:55:44.408Z,1.10
2022-12-27T10:58:46.652Z,1.00
2022-12-27T11:01:33.961Z,0.90
2022-12-27T11:04:23.651Z,1.10
2022-12-27T11:07:15.751Z,1.40
2022-12-27T11:10:14.716Z,0.80
2022-12-27T11:13:03.254Z,1.20
2022-12-27T11:15:58.535Z,1.10
2022-12-27T11:18:50.249Z,0.90
2022-12-27T11:21:38.017Z,1.20
2022-12-27T11:24:24.498Z,0.80
2022-12-27T11:27:20.071Z,1.20
2022-12-27T11:30:07.500Z,0.80
2022-12-27T11:32:54.009Z,0.90
2022-12-27T11:35:46.968Z,1.10
2022-12-27T11:38:34.227Z,1.00
2022-12-27T11:41:27.671Z,0.60
2022-12-27T11:44:23.007Z,1.00
2022-12-27T11:47:13.468Z,0.90
2022-12-27T11:50:22.472Z,0.80
2022-12-27T11:53:21.099Z,0.90
2022-12-27T11:56:27.565Z,1.00
2022-12-27T11:59:25.780Z,1.00
2022-12-27T12:02:22.453Z,1.20
2022-12-27T12:08:17.030Z,1.20
2022-12-27T12:11:22.580Z,0.90
2022-12-27T12:14:37.666Z,1.40
2022-12-27T12:17:50.749Z,1.50
2022-12-27T12:21:01.368Z,1.40
2022-12-27T12:24:19.975Z,1.00
2022-12-27T12:27:27.854Z,1.20
2022-12-27T12:30:33.566Z,1.30
2022-12-27T12:33:41.564Z,1.50
2022-12-27T12:36:30.776Z,1.20
2022-12-27T12:40:11.889Z,1.20
2022-12-27T12:43:06.256Z,1.40
2022-12-27T12:46:02.229Z,1.50
2022-12-27T12:49:14.757Z,2.00
2022-12-27T12:52:31.474Z,1.50
2022-12-27T12:55:20.301Z,2.40
2022-12-27T12:58:39.481Z,1.20
2022-12-27T13:01:51.032Z,1.50
2022-12-27T13:04:55.952Z,0.70
2022-12-27T13:08:03.488Z,1.50
2022-12-27T13:11:02.260Z,1.80
2022-12-27T13:14:03.950Z,1.50
2022-12-27T13:16:56.345Z,1.50
2022-12-27T13:20:14.147Z,1.30
2022-12-27T13:23:25.792Z,0.90
2022-12-27T13:26:41.732Z,1.20
2022-12-27T13:29:45.163Z,1.40
2022-12-27T13:32:37.528Z,1.90
2022-12-27T13:35:50.502Z,1.10
2022-12-27T13:39:08.802Z,1.70
2022-12-27T13:42:17.372Z,1.40
2022-12-27T13:45:46.499Z,1.40
2022-12-27T13:48:52.613Z,3.10
2022-12-27T13:51:48.425Z,1.20
2022-12-27T13:54:45.270Z,2.60
2022-12-27T13:57:56.205Z,2.00
2022-12-27T14:01:19.897Z,1.50
2022-12-27T14:04:29.620Z,1.80
2022-12-27T14:07:35.169Z,2.30
2022-12-27T14:10:47.885Z,1.80
2022-12-27T14:13:40.354Z,2.00
2022-12-27T14:16:38.822Z,2.10
2022-12-27T14:19:35.479Z,1.90
2022-12-27T14:25:42.896Z,2.30
2022-12-27T14:28:54.738Z,1.90
2022-12-27T14:32:02.315Z,4.20
2022-12-27T14:35:04.303Z,2.10
2022-12-27T14:38:18.082Z,2.40
2022-12-27T14:41:23.455Z,2.20
2022-12-27T14:44:43.373Z,1.90
2022-12-27T14:48:10.387Z,1.20
2022-12-27T14:55:11.808Z,1.40
2022-12-27T14:58:37.527Z,2.90
2022-12-27T15:04:43.357Z,3.30
2022-12-27T15:07:41.822Z,3.00
2022-12-27T15:10:53.539Z,1.80
2022-12-27T15:14:10.531Z,1.40
2022-12-27T15:17:09.017Z,1.60
2022-12-27T15:20:07.018Z,5.40
2022-12-27T15:23:05.232Z,2.10
2022-12-27T15:26:10.201Z,1.70
2022-12-27T15:29:27.797Z,2.00
2022-12-27T15:32:39.479Z,2.50
2022-12-27T15:35:32.067Z,1.70
2022-12-27T15:38:27.180Z,2.30
2022-12-27T15:41:41.365Z,2.10
2022-12-27T15:44:52.635Z,1.80
2022-12-27T15:47:52.098Z,1.90
2022-12-27T15:50:43.229Z,1.70
2022-12-27T15:53:38.730Z,2.70
2022-12-27T15:56:37.335Z,1.60
2022-12-27T15:59:33.900Z,2.00
2022-12-27T16:05:19.177Z,2.40
2022-12-27T16:08:08.590Z,1.70
2022-12-27T16:10:55.812Z,3.30
2022-12-27T16:13:47.164Z,2.10
2022-12-27T16:16:40.175Z,2.40
2022-12-27T16:19:40.749Z,1.70
2022-12-27T16:22:41.915Z,2.20
2022-12-27T16:25:34.387Z,2.60
2022-12-27T16:28:24.745Z,3.30
2022-12-27T16:31:11.817Z,2.70
2022-12-27T16:34:00.079Z,3.60
2022-12-27T16:36:47.872Z,3.70
2022-12-27T16:39:40.035Z,3.00
2022-12-27T16:42:45.975Z,2.30
2022-12-27T16:45:38.842Z,8.50
2022-12-27T16:49:23.452Z,9.20
2022-12-27T16:52:12.783Z,4.50
2022-12-27T16:55:26.721Z,4.50
2022-12-27T16:58:18.720Z,4.30
2022-12-27T17:01:36.096Z,4.80
2022-12-27T17:05:11.239Z,2.90
2022-12-27T17:07:57.580Z,2.90
2022-12-27T17:10:50.160Z,2.20
2022-12-27T17:13:57.141Z,2.00
2022-12-27T17:16:48.941Z,2.20
2022-12-27T17:19:40.578Z,3.30
2022-12-27T17:22:33.938Z,1.90
2022-12-27T17:25:22.882Z,4.40
2022-12-27T17:28:16.592Z,3.50
2022-12-27T17:31:21.791Z,3.20
2022-12-27T17:34:21.983Z,2.90
2022-12-27T17:37:29.540Z,4.10
2022-12-27T17:40:28.140Z,2.10
2022-12-27T17:43:52.229Z,6.10
2022-12-27T17:46:50.379Z,2.40
2022-12-27T17:49:36.571Z,2.90
2022-12-27T17:52:43.737Z,2.50
2022-12-27T17:55:48.561Z,2.30
2022-12-27T17:58:35.148Z,3.80
2022-12-27T18:01:21.790Z,2.00
2022-12-27T18:04:08.431Z,1.60
2022-12-27T18:06:59.946Z,2.70
2022-12-27T18:09:51.099Z,1.90
2022-12-27T18:12:38.293Z,3.00
2022-12-27T18:15:26.292Z,2.90
2022-12-27T18:18:34.659Z,3.10
2022-12-27T18:21:28.393Z,2.90
2022-12-27T18:24:24.395Z,1.70
2022-12-27T18:27:19.330Z,3.40
2022-12-27T18:30:07.995Z,3.30
2022-12-27T18:32:54.460Z,3.30
2022-12-27T18:35:42.924Z,5.30
2022-12-27T18:38:35.031Z,4.20
2022-12-27T18:41:21.534Z,5.40
2022-12-27T18:44:12.446Z,6.70
2022-12-27T18:49:48.616Z,7.90
2022-12-27T18:52:38.354Z,4.40
2022-12-27T18:55:28.868Z,5.30
2022-12-27T18:58:20.755Z,5.90
2022-12-27T19:01:19.371Z,3.80
2022-12-27T19:04:15.195Z,4.80
2022-12-27T19:07:10.891Z,5.40
2022-12-27T19:09:58.149Z,6.30
2022-12-27T19:12:44.440Z,5.40
2022-12-27T19:15:40.536Z,5.10
2022-12-27T19:18:29.312Z,5.00
2022-12-27T19:21:15.474Z,5.00
2022-12-27T19:24:21.957Z,4.00
2022-12-27T19:27:16.366Z,4.50
2022-12-27T19:30:02.819Z,4.40
2022-12-27T19:32:49.276Z,3.10
2022-12-27T19:35:36.466Z,4.10
2022-12-27T19:38:23.831Z,4.70
2022-12-27T19:41:16.447Z,5.70
2022-12-27T19:44:03.479Z,6.30
2022-12-27T19:46:50.201Z,4.60
2022-12-27T19:49:45.165Z,4.30
2022-12-27T19:52:31.915Z,4.20
2022-12-27T19:55:21.198Z,4.20
2022-12-27T19:58:18.680Z,2.80
2022-12-27T20:01:05.356Z,3.00
2022-12-27T20:03:51.717Z,2.50
2022-12-27T20:06:37.883Z,3.80
2022-12-27T20:09:24.039Z,3.60
2022-12-27T20:12:10.341Z,6.10
2022-12-27T20:14:56.668Z,7.90
2022-12-27T20:17:45.325Z,5.90
2022-12-27T20:20:31.918Z,6.00
2022-12-27T20:23:18.701Z,7.00
2022-12-27T20:26:04.941Z,4.20
2022-12-27T20:28:51.822Z,7.00
2022-12-27T20:31:44.465Z,4.50
2022-12-27T20:34:31.634Z,10.80
2022-12-27T20:37:24.143Z,6.10
2022-12-27T20:40:11.304Z,10.10
2022-12-27T20:42:58.032Z,8.70
2022-12-27T20:45:45.615Z,8.00
2022-12-27T20:48:32.146Z,6.20
2022-12-27T20:51:20.611Z,5.30
2022-12-27T20:54:07.031Z,4.30
2022-12-27T20:56:53.692Z,7.20
2022-12-27T20:59:40.133Z,6.00
2022-12-27T21:02:27.578Z,5.50
2022-12-27T21:05:14.169Z,8.40
2022-12-27T21:08:00.851Z,5.60
2022-12-27T21:10:47.283Z,5.40
2022-12-27T21:13:36.432Z,4.10
2022-12-27T21:16:24.899Z,4.10
2022-12-27T21:19:11.361Z,5.30
2022-12-27T21:21:58.136Z,6.30
2022-12-27T21:24:44.459Z,5.90
2022-12-27T21:27:30.942Z,6.20
2022-12-27T21:30:17.305Z,8.30
2022-12-27T21:33:04.072Z,10.90
2022-12-27T21:36:01.625Z,8.80
2022-12-27T21:38:48.337Z,9.90
2022-12-27T21:41:36.192Z,5.50
2022-12-27T21:44:25.414Z,8.80
2022-12-27T21:47:11.861Z,8.20
2022-12-27T21:49:58.587Z,17.10
2022-12-27T21:52:45.252Z,10.30
2022-12-27T21:55:31.463Z,9.00
2022-12-27T21:58:17.508Z,9.00
2022-12-27T22:01:09.201Z,12.10
2022-12-27T22:03:56.270Z,14.10
2022-12-27T22:06:46.773Z,25.40
2022-12-27T22:09:33.788Z,12.50
2022-12-27T22:12:20.510Z,11.50
2022-12-27T22:15:07.183Z,14.00
2022-12-27T22:17:54.104Z,8.10
2022-12-27T22:20:46.655Z,11.40
2022-12-27T22:23:34.392Z,8.00
2022-12-27T22:26:22.891Z,8.50
2022-12-27T22:29:09.245Z,8.50
2022-12-27T22:31:55.414Z,9.40
2022-12-27T22:34:41.731Z,7.70
2022-12-27T22:37:28.141Z,10.60
2022-12-27T22:40:30.793Z,9.00
2022-12-27T22:43:20.725Z,6.70
2022-12-27T22:46:08.315Z,9.70
2022-12-27T22:48:56.432Z,12.50
2022-12-27T22:51:42.898Z,14.30
2022-12-27T22:55:03.153Z,4.60
2022-12-27T22:57:35.593Z,9.50
2022-12-27T23:00:21.839Z,10.00
2022-12-27T23:03:08.405Z,9.20
2022-12-27T23:06:00.894Z,7.80
2022-12-27T23:08:47.635Z,9.30
2022-12-27T23:11:35.951Z,10.00
2022-12-27T23:14:22.255Z,17.90
2022-12-27T23:17:08.834Z,8.30
2022-12-27T23:19:54.935Z,9.70
2022-12-27T23:22:41.140Z,8.80
2022-12-27T23:25:27.590Z,20.30
2022-12-27T23:28:15.390Z,18.90
2022-12-27T23:31:01.916Z,19.90
2022-12-27T23:33:48.808Z,14.90
2022-12-27T23:36:35.410Z,15.90
2022-12-27T23:39:21.879Z,17.00
2022-12-27T23:42:08.485Z,17.40
2022-12-27T23:44:54.728Z,17.40
2022-12-27T23:47:41.111Z,17.90
2022-12-27T23:50:27.413Z,19.20
2022-12-27T23:53:14.146Z,13.70
2022-12-27T23:56:22.404Z,4.80
2022-12-27T23:59:09.520Z,8.30
